sensor_id;sensor_type;location;lat;lon;timestamp;temperature;humidity
12655;DHT22;6392;44.644;11.448;2022-08-21T00:01:45;23.50;99.90
12655;DHT22;6392;44.644;11.448;2022-08-21T00:04:13;23.50;99.90
12655;DHT22;6392;44.644;11.448;2022-08-21T00:06:40;23.50;99.90
12655;DHT22;6392;44.644;11.448;2022-08-21T00:09:08;23.60;99.90
12655;DHT22;6392;44.644;11.448;2022-08-21T00:11:37;23.60;99.90
12655;DHT22;6392;44.644;11.448;2022-08-21T00:14:07;23.50;99.90
12655;DHT22;6392;44.644;11.448;2022-08-21T00:16:35;23.50;99.90
12655;DHT22;6392;44.644;11.448;2022-08-21T00:19:03;23.40;99.90
12655;DHT22;6392;44.644;11.448;2022-08-21T00:21:32;23.30;99.90
12655;DHT22;6392;44.644;11.448;2022-08-21T00:23:59;23.20;99.90
12655;DHT22;6392;44.644;11.448;2022-08-21T00:26:26;23.20;99.90
12655;DHT22;6392;44.644;11.448;2022-08-21T00:28:53;23.20;99.90
12655;DHT22;6392;44.644;11.448;2022-08-21T00:31:20;23.10;99.90
12655;DHT22;6392;44.644;11.448;2022-08-21T00:33:47;23.10;99.90
12655;DHT22;6392;44.644;11.448;2022-08-21T00:36:16;23.10;99.90
12655;DHT22;6392;44.644;11.448;2022-08-21T00:38:43;23.10;99.90
12655;DHT22;6392;44.644;11.448;2022-08-21T00:41:11;23.10;99.90
12655;DHT22;6392;44.644;11.448;2022-08-21T00:43:39;23.10;99.90
12655;DHT22;6392;44.644;11.448;2022-08-21T00:46:07;23.10;99.90
12655;DHT22;6392;44.644;11.448;2022-08-21T00:48:34;23.20;99.90
12655;DHT22;6392;44.644;11.448;2022-08-21T00:51:05;23.30;99.90
12655;DHT22;6392;44.644;11.448;2022-08-21T00:53:36;23.30;99.90
12655;DHT22;6392;44.644;11.448;2022-08-21T00:56:05;23.30;99.90
12655;DHT22;6392;44.644;11.448;2022-08-21T00:58:34;23.30;99.90
12655;DHT22;6392;44.644;11.448;2022-08-21T01:01:04;23.30;99.90
12655;DHT22;6392;44.644;11.448;2022-08-21T01:03:33;23.20;99.90
12655;DHT22;6392;44.644;11.448;2022-08-21T01:06:00;23.20;99.90
12655;DHT22;6392;44.644;11.448;2022-08-21T01:08:28;23.10;99.90
12655;DHT22;6392;44.644;11.448;2022-08-21T01:10:57;23.10;99.90
12655;DHT22;6392;44.644;11.448;2022-08-21T01:13:26;23.10;99.90
12655;DHT22;6392;44.644;11.448;2022-08-21T01:15:55;23.10;99.90
12655;DHT22;6392;44.644;11.448;2022-08-21T01:18:23;23.00;99.90
12655;DHT22;6392;44.644;11.448;2022-08-21T01:21:05;22.80;99.90
12655;DHT22;6392;44.644;11.448;2022-08-21T01:23:32;22.80;99.90
12655;DHT22;6392;44.644;11.448;2022-08-21T01:25:59;22.80;99.90
12655;DHT22;6392;44.644;11.448;2022-08-21T01:28:28;22.80;99.90
12655;DHT22;6392;44.644;11.448;2022-08-21T01:30:57;22.80;99.90
12655;DHT22;6392;44.644;11.448;2022-08-21T01:33:25;22.80;99.90
12655;DHT22;6392;44.644;11.448;2022-08-21T01:35:52;22.80;99.90
12655;DHT22;6392;44.644;11.448;2022-08-21T01:38:20;22.80;99.90
12655;DHT22;6392;44.644;11.448;2022-08-21T01:40:47;22.80;99.90
12655;DHT22;6392;44.644;11.448;2022-08-21T01:43:14;22.80;99.90
12655;DHT22;6392;44.644;11.448;2022-08-21T01:45:41;22.70;99.90
12655;DHT22;6392;44.644;11.448;2022-08-21T01:48:08;22.70;99.90
12655;DHT22;6392;44.644;11.448;2022-08-21T01:50:35;22.80;99.90
12655;DHT22;6392;44.644;11.448;2022-08-21T01:53:03;22.70;99.90
12655;DHT22;6392;44.644;11.448;2022-08-21T01:55:32;22.80;99.90
12655;DHT22;6392;44.644;11.448;2022-08-21T01:57:59;22.80;99.90
12655;DHT22;6392;44.644;11.448;2022-08-21T02:00:26;22.80;99.90
12655;DHT22;6392;44.644;11.448;2022-08-21T02:02:53;22.80;99.90
12655;DHT22;6392;44.644;11.448;2022-08-21T02:05:21;22.60;99.90
12655;DHT22;6392;44.644;11.448;2022-08-21T02:07:50;22.50;99.90
12655;DHT22;6392;44.644;11.448;2022-08-21T02:10:21;22.50;99.90
12655;DHT22;6392;44.644;11.448;2022-08-21T02:12:49;22.50;99.90
12655;DHT22;6392;44.644;11.448;2022-08-21T02:15:17;22.50;99.90
12655;DHT22;6392;44.644;11.448;2022-08-21T02:17:46;22.40;99.90
12655;DHT22;6392;44.644;11.448;2022-08-21T02:20:18;22.40;99.90
12655;DHT22;6392;44.644;11.448;2022-08-21T02:22:45;22.30;99.90
12655;DHT22;6392;44.644;11.448;2022-08-21T02:25:12;22.30;99.90
12655;DHT22;6392;44.644;11.448;2022-08-21T02:27:41;22.30;99.90
12655;DHT22;6392;44.644;11.448;2022-08-21T02:30:12;22.30;99.90
12655;DHT22;6392;44.644;11.448;2022-08-21T02:32:39;22.30;99.90
12655;DHT22;6392;44.644;11.448;2022-08-21T02:35:08;22.30;99.90
12655;DHT22;6392;44.644;11.448;2022-08-21T02:37:44;22.40;99.90
12655;DHT22;6392;44.644;11.448;2022-08-21T02:40:12;22.30;99.90
12655;DHT22;6392;44.644;11.448;2022-08-21T02:42:39;22.30;99.90
12655;DHT22;6392;44.644;11.448;2022-08-21T02:45:07;22.30;99.90
12655;DHT22;6392;44.644;11.448;2022-08-21T02:47:35;22.20;99.90
12655;DHT22;6392;44.644;11.448;2022-08-21T02:50:04;22.10;99.90
12655;DHT22;6392;44.644;11.448;2022-08-21T02:52:31;22.10;99.90
12655;DHT22;6392;44.644;11.448;2022-08-21T02:54:59;22.10;99.90
12655;DHT22;6392;44.644;11.448;2022-08-21T02:57:26;22.10;99.90
12655;DHT22;6392;44.644;11.448;2022-08-21T02:59:53;22.20;99.90
12655;DHT22;6392;44.644;11.448;2022-08-21T03:02:20;22.20;99.90
12655;DHT22;6392;44.644;11.448;2022-08-21T03:04:49;22.20;99.90
12655;DHT22;6392;44.644;11.448;2022-08-21T03:07:16;22.10;99.90
12655;DHT22;6392;44.644;11.448;2022-08-21T03:09:43;22.10;99.90
12655;DHT22;6392;44.644;11.448;2022-08-21T03:12:11;22.00;99.90
12655;DHT22;6392;44.644;11.448;2022-08-21T03:14:38;21.90;99.90
12655;DHT22;6392;44.644;11.448;2022-08-21T03:17:05;21.80;99.90
12655;DHT22;6392;44.644;11.448;2022-08-21T03:19:32;21.80;99.90
12655;DHT22;6392;44.644;11.448;2022-08-21T03:22:01;21.70;99.90
12655;DHT22;6392;44.644;11.448;2022-08-21T03:24:28;21.70;99.90
12655;DHT22;6392;44.644;11.448;2022-08-21T03:26:55;21.70;99.90
12655;DHT22;6392;44.644;11.448;2022-08-21T03:29:22;21.70;99.90
12655;DHT22;6392;44.644;11.448;2022-08-21T03:31:49;21.70;99.90
12655;DHT22;6392;44.644;11.448;2022-08-21T03:34:18;21.60;99.90
12655;DHT22;6392;44.644;11.448;2022-08-21T03:36:45;21.60;99.90
12655;DHT22;6392;44.644;11.448;2022-08-21T03:39:13;21.60;99.90
12655;DHT22;6392;44.644;11.448;2022-08-21T03:41:40;21.70;99.90
12655;DHT22;6392;44.644;11.448;2022-08-21T03:44:08;21.80;99.90
12655;DHT22;6392;44.644;11.448;2022-08-21T03:46:35;21.90;99.90
12655;DHT22;6392;44.644;11.448;2022-08-21T03:49:02;21.90;99.90
12655;DHT22;6392;44.644;11.448;2022-08-21T03:51:29;21.90;99.90
12655;DHT22;6392;44.644;11.448;2022-08-21T03:53:57;21.80;99.90
12655;DHT22;6392;44.644;11.448;2022-08-21T03:56:26;21.80;99.90
12655;DHT22;6392;44.644;11.448;2022-08-21T03:58:53;21.80;99.90
12655;DHT22;6392;44.644;11.448;2022-08-21T04:01:21;21.80;99.90
12655;DHT22;6392;44.644;11.448;2022-08-21T04:03:48;21.90;99.90
12655;DHT22;6392;44.644;11.448;2022-08-21T04:06:15;21.80;99.90
12655;DHT22;6392;44.644;11.448;2022-08-21T04:08:42;21.80;99.90
12655;DHT22;6392;44.644;11.448;2022-08-21T04:11:09;21.90;99.90
12655;DHT22;6392;44.644;11.448;2022-08-21T04:13:38;21.80;99.90
12655;DHT22;6392;44.644;11.448;2022-08-21T04:16:06;21.80;99.90
12655;DHT22;6392;44.644;11.448;2022-08-21T04:18:35;21.70;99.90
12655;DHT22;6392;44.644;11.448;2022-08-21T04:21:02;21.70;99.90
12655;DHT22;6392;44.644;11.448;2022-08-21T04:23:30;21.70;99.90
12655;DHT22;6392;44.644;11.448;2022-08-21T04:25:57;21.60;99.90
12655;DHT22;6392;44.644;11.448;2022-08-21T04:28:26;21.50;99.90
12655;DHT22;6392;44.644;11.448;2022-08-21T04:30:55;21.50;99.90
12655;DHT22;6392;44.644;11.448;2022-08-21T04:33:23;21.50;99.90
12655;DHT22;6392;44.644;11.448;2022-08-21T04:35:50;21.60;99.90
12655;DHT22;6392;44.644;11.448;2022-08-21T04:38:18;21.60;99.90
12655;DHT22;6392;44.644;11.448;2022-08-21T04:40:46;21.70;99.90
12655;DHT22;6392;44.644;11.448;2022-08-21T04:43:14;21.70;99.90
12655;DHT22;6392;44.644;11.448;2022-08-21T04:45:43;21.70;99.90
12655;DHT22;6392;44.644;11.448;2022-08-21T04:48:13;21.70;99.90
12655;DHT22;6392;44.644;11.448;2022-08-21T04:50:45;21.70;99.90
12655;DHT22;6392;44.644;11.448;2022-08-21T04:53:16;21.60;99.90
12655;DHT22;6392;44.644;11.448;2022-08-21T04:55:45;21.60;99.90
12655;DHT22;6392;44.644;11.448;2022-08-21T04:58:15;21.50;99.90
12655;DHT22;6392;44.644;11.448;2022-08-21T05:00:44;21.50;99.90
12655;DHT22;6392;44.644;11.448;2022-08-21T05:03:14;21.60;99.90
12655;DHT22;6392;44.644;11.448;2022-08-21T05:05:43;21.60;99.90
12655;DHT22;6392;44.644;11.448;2022-08-21T05:08:12;21.60;99.90
12655;DHT22;6392;44.644;11.448;2022-08-21T05:10:41;21.60;99.90
12655;DHT22;6392;44.644;11.448;2022-08-21T05:13:10;21.70;99.90
12655;DHT22;6392;44.644;11.448;2022-08-21T05:15:39;21.70;99.90
12655;DHT22;6392;44.644;11.448;2022-08-21T05:18:06;21.70;99.90
12655;DHT22;6392;44.644;11.448;2022-08-21T05:20:34;21.80;99.90
12655;DHT22;6392;44.644;11.448;2022-08-21T05:23:06;21.90;99.90
12655;DHT22;6392;44.644;11.448;2022-08-21T05:25:34;21.80;99.90
12655;DHT22;6392;44.644;11.448;2022-08-21T05:28:01;21.80;99.90
12655;DHT22;6392;44.644;11.448;2022-08-21T05:30:28;21.90;99.90
12655;DHT22;6392;44.644;11.448;2022-08-21T05:32:56;21.90;99.90
12655;DHT22;6392;44.644;11.448;2022-08-21T05:35:25;21.90;99.90
12655;DHT22;6392;44.644;11.448;2022-08-21T05:37:54;21.90;99.90
12655;DHT22;6392;44.644;11.448;2022-08-21T05:40:21;21.90;99.90
12655;DHT22;6392;44.644;11.448;2022-08-21T05:42:48;22.00;99.90
12655;DHT22;6392;44.644;11.448;2022-08-21T05:45:16;22.10;99.90
12655;DHT22;6392;44.644;11.448;2022-08-21T05:47:43;22.10;99.90
12655;DHT22;6392;44.644;11.448;2022-08-21T05:50:10;22.20;99.90
12655;DHT22;6392;44.644;11.448;2022-08-21T05:52:37;22.20;99.90
12655;DHT22;6392;44.644;11.448;2022-08-21T05:55:07;22.30;99.90
12655;DHT22;6392;44.644;11.448;2022-08-21T05:57:34;22.30;99.90
12655;DHT22;6392;44.644;11.448;2022-08-21T06:00:01;22.40;99.90
12655;DHT22;6392;44.644;11.448;2022-08-21T06:02:28;22.40;99.90
12655;DHT22;6392;44.644;11.448;2022-08-21T06:04:56;22.50;99.90
12655;DHT22;6392;44.644;11.448;2022-08-21T06:07:24;22.50;99.90
12655;DHT22;6392;44.644;11.448;2022-08-21T06:09:51;22.60;99.90
12655;DHT22;6392;44.644;11.448;2022-08-21T06:12:19;22.60;99.90
12655;DHT22;6392;44.644;11.448;2022-08-21T06:14:48;22.70;99.90
12655;DHT22;6392;44.644;11.448;2022-08-21T06:17:16;22.80;99.90
12655;DHT22;6392;44.644;11.448;2022-08-21T06:19:43;22.80;99.90
12655;DHT22;6392;44.644;11.448;2022-08-21T06:22:10;22.80;99.90
12655;DHT22;6392;44.644;11.448;2022-08-21T06:24:37;22.90;99.90
12655;DHT22;6392;44.644;11.448;2022-08-21T06:27:05;23.00;99.90
12655;DHT22;6392;44.644;11.448;2022-08-21T06:29:34;23.00;99.90
12655;DHT22;6392;44.644;11.448;2022-08-21T06:32:03;23.00;99.90
12655;DHT22;6392;44.644;11.448;2022-08-21T06:34:35;23.10;99.90
12655;DHT22;6392;44.644;11.448;2022-08-21T06:37:03;23.10;99.90
12655;DHT22;6392;44.644;11.448;2022-08-21T06:39:30;23.10;99.90
12655;DHT22;6392;44.644;11.448;2022-08-21T06:41:57;23.20;99.90
12655;DHT22;6392;44.644;11.448;2022-08-21T06:44:25;23.20;99.90
12655;DHT22;6392;44.644;11.448;2022-08-21T06:46:53;23.20;99.90
12655;DHT22;6392;44.644;11.448;2022-08-21T06:49:20;23.20;99.90
12655;DHT22;6392;44.644;11.448;2022-08-21T06:51:47;23.30;99.90
12655;DHT22;6392;44.644;11.448;2022-08-21T06:54:14;23.30;99.90
12655;DHT22;6392;44.644;11.448;2022-08-21T06:56:41;23.40;99.90
12655;DHT22;6392;44.644;11.448;2022-08-21T06:59:08;23.40;99.90
12655;DHT22;6392;44.644;11.448;2022-08-21T07:01:35;23.40;99.90
12655;DHT22;6392;44.644;11.448;2022-08-21T07:04:04;23.50;99.90
12655;DHT22;6392;44.644;11.448;2022-08-21T07:06:31;23.60;99.90
12655;DHT22;6392;44.644;11.448;2022-08-21T07:08:58;23.60;99.90
12655;DHT22;6392;44.644;11.448;2022-08-21T07:11:26;23.70;99.90
12655;DHT22;6392;44.644;11.448;2022-08-21T07:13:54;23.70;99.90
12655;DHT22;6392;44.644;11.448;2022-08-21T07:16:22;23.80;99.90
12655;DHT22;6392;44.644;11.448;2022-08-21T07:18:49;23.80;99.90
12655;DHT22;6392;44.644;11.448;2022-08-21T07:21:18;23.90;99.90
12655;DHT22;6392;44.644;11.448;2022-08-21T07:23:47;23.90;99.90
12655;DHT22;6392;44.644;11.448;2022-08-21T07:26:17;23.90;99.90
12655;DHT22;6392;44.644;11.448;2022-08-21T07:28:45;24.00;99.90
12655;DHT22;6392;44.644;11.448;2022-08-21T07:31:14;24.00;99.90
12655;DHT22;6392;44.644;11.448;2022-08-21T07:33:42;24.10;99.90
12655;DHT22;6392;44.644;11.448;2022-08-21T07:36:09;24.10;99.90
12655;DHT22;6392;44.644;11.448;2022-08-21T07:38:38;24.20;99.90
12655;DHT22;6392;44.644;11.448;2022-08-21T07:41:12;24.20;99.90
12655;DHT22;6392;44.644;11.448;2022-08-21T07:43:40;24.20;99.90
12655;DHT22;6392;44.644;11.448;2022-08-21T07:46:07;24.30;99.90
12655;DHT22;6392;44.644;11.448;2022-08-21T07:48:34;24.30;99.90
12655;DHT22;6392;44.644;11.448;2022-08-21T07:51:05;24.30;99.90
12655;DHT22;6392;44.644;11.448;2022-08-21T07:53:32;24.40;99.90
12655;DHT22;6392;44.644;11.448;2022-08-21T07:56:00;24.40;99.90
12655;DHT22;6392;44.644;11.448;2022-08-21T07:58:27;24.50;99.90
12655;DHT22;6392;44.644;11.448;2022-08-21T08:00:54;24.60;99.90
12655;DHT22;6392;44.644;11.448;2022-08-21T08:03:22;24.80;99.90
12655;DHT22;6392;44.644;11.448;2022-08-21T08:05:49;24.80;99.90
12655;DHT22;6392;44.644;11.448;2022-08-21T08:08:16;24.90;99.90
12655;DHT22;6392;44.644;11.448;2022-08-21T08:10:44;24.90;99.90
12655;DHT22;6392;44.644;11.448;2022-08-21T08:13:13;24.90;99.90
12655;DHT22;6392;44.644;11.448;2022-08-21T08:15:40;25.00;99.90
12655;DHT22;6392;44.644;11.448;2022-08-21T08:18:07;25.00;99.90
12655;DHT22;6392;44.644;11.448;2022-08-21T08:20:34;25.10;99.90
12655;DHT22;6392;44.644;11.448;2022-08-21T08:23:02;25.10;99.90
12655;DHT22;6392;44.644;11.448;2022-08-21T08:25:29;25.20;99.90
12655;DHT22;6392;44.644;11.448;2022-08-21T08:27:56;25.20;99.90
12655;DHT22;6392;44.644;11.448;2022-08-21T08:30:25;25.20;99.90
12655;DHT22;6392;44.644;11.448;2022-08-21T08:32:52;25.30;99.90
12655;DHT22;6392;44.644;11.448;2022-08-21T08:35:19;25.40;99.90
12655;DHT22;6392;44.644;11.448;2022-08-21T08:37:46;25.50;99.90
12655;DHT22;6392;44.644;11.448;2022-08-21T08:40:18;25.50;99.90
12655;DHT22;6392;44.644;11.448;2022-08-21T08:42:47;25.50;99.90
12655;DHT22;6392;44.644;11.448;2022-08-21T08:45:19;25.50;99.90
12655;DHT22;6392;44.644;11.448;2022-08-21T08:47:52;25.70;99.90
12655;DHT22;6392;44.644;11.448;2022-08-21T08:50:26;25.70;99.90
12655;DHT22;6392;44.644;11.448;2022-08-21T08:52:59;25.70;99.90
12655;DHT22;6392;44.644;11.448;2022-08-21T08:55:33;25.80;99.90
12655;DHT22;6392;44.644;11.448;2022-08-21T08:58:01;25.90;99.90
12655;DHT22;6392;44.644;11.448;2022-08-21T09:00:29;25.90;99.90
12655;DHT22;6392;44.644;11.448;2022-08-21T09:03:02;26.20;99.90
12655;DHT22;6392;44.644;11.448;2022-08-21T09:05:33;26.10;99.90
12655;DHT22;6392;44.644;11.448;2022-08-21T09:08:17;26.10;99.90
12655;DHT22;6392;44.644;11.448;2022-08-21T09:10:52;26.10;99.90
12655;DHT22;6392;44.644;11.448;2022-08-21T09:13:31;26.10;99.90
12655;DHT22;6392;44.644;11.448;2022-08-21T09:16:11;26.10;99.90
12655;DHT22;6392;44.644;11.448;2022-08-21T09:18:48;26.10;99.90
12655;DHT22;6392;44.644;11.448;2022-08-21T09:21:26;26.10;99.90
12655;DHT22;6392;44.644;11.448;2022-08-21T09:23:59;26.10;99.90
12655;DHT22;6392;44.644;11.448;2022-08-21T09:26:30;26.20;99.90
12655;DHT22;6392;44.644;11.448;2022-08-21T09:28:59;26.20;99.90
12655;DHT22;6392;44.644;11.448;2022-08-21T09:31:30;26.20;99.90
12655;DHT22;6392;44.644;11.448;2022-08-21T09:34:00;26.30;99.90
12655;DHT22;6392;44.644;11.448;2022-08-21T09:36:37;26.40;99.90
12655;DHT22;6392;44.644;11.448;2022-08-21T09:39:05;26.30;99.90
12655;DHT22;6392;44.644;11.448;2022-08-21T09:41:34;26.50;99.90
12655;DHT22;6392;44.644;11.448;2022-08-21T09:44:03;26.60;99.90
12655;DHT22;6392;44.644;11.448;2022-08-21T09:46:30;26.60;99.90
12655;DHT22;6392;44.644;11.448;2022-08-21T09:49:01;26.60;99.90
12655;DHT22;6392;44.644;11.448;2022-08-21T09:51:31;26.50;99.90
12655;DHT22;6392;44.644;11.448;2022-08-21T09:54:10;26.60;99.90
12655;DHT22;6392;44.644;11.448;2022-08-21T09:56:51;26.70;99.90
12655;DHT22;6392;44.644;11.448;2022-08-21T09:59:38;26.70;99.90
12655;DHT22;6392;44.644;11.448;2022-08-21T10:02:25;26.60;99.90
12655;DHT22;6392;44.644;11.448;2022-08-21T10:04:55;26.70;99.90
12655;DHT22;6392;44.644;11.448;2022-08-21T10:07:25;26.80;99.90
12655;DHT22;6392;44.644;11.448;2022-08-21T10:10:01;26.70;99.90
12655;DHT22;6392;44.644;11.448;2022-08-21T10:12:37;26.70;99.90
12655;DHT22;6392;44.644;11.448;2022-08-21T10:15:13;26.60;99.90
12655;DHT22;6392;44.644;11.448;2022-08-21T10:17:52;26.60;99.90
12655;DHT22;6392;44.644;11.448;2022-08-21T10:20:25;26.80;99.90
12655;DHT22;6392;44.644;11.448;2022-08-21T10:23:07;26.80;99.90
12655;DHT22;6392;44.644;11.448;2022-08-21T10:25:41;26.60;99.90
12655;DHT22;6392;44.644;11.448;2022-08-21T10:28:16;26.30;99.90
12655;DHT22;6392;44.644;11.448;2022-08-21T10:30:48;26.30;99.90
12655;DHT22;6392;44.644;11.448;2022-08-21T10:33:28;26.10;99.90
12655;DHT22;6392;44.644;11.448;2022-08-21T10:36:04;26.10;99.90
12655;DHT22;6392;44.644;11.448;2022-08-21T10:38:56;26.00;99.90
12655;DHT22;6392;44.644;11.448;2022-08-21T10:41:32;26.00;99.90
12655;DHT22;6392;44.644;11.448;2022-08-21T10:44:14;26.10;99.90
12655;DHT22;6392;44.644;11.448;2022-08-21T10:46:51;26.40;99.90
12655;DHT22;6392;44.644;11.448;2022-08-21T10:49:27;26.40;99.90
12655;DHT22;6392;44.644;11.448;2022-08-21T10:52:10;26.50;99.90
12655;DHT22;6392;44.644;11.448;2022-08-21T10:54:48;26.60;99.90
12655;DHT22;6392;44.644;11.448;2022-08-21T10:57:30;26.60;99.90
12655;DHT22;6392;44.644;11.448;2022-08-21T11:00:04;26.50;99.90
12655;DHT22;6392;44.644;11.448;2022-08-21T11:02:37;26.70;99.90
12655;DHT22;6392;44.644;11.448;2022-08-21T11:05:10;26.60;99.90
12655;DHT22;6392;44.644;11.448;2022-08-21T11:07:46;26.60;99.90
12655;DHT22;6392;44.644;11.448;2022-08-21T11:10:19;26.90;99.90
12655;DHT22;6392;44.644;11.448;2022-08-21T11:12:52;27.00;99.90
12655;DHT22;6392;44.644;11.448;2022-08-21T11:15:29;26.90;99.90
12655;DHT22;6392;44.644;11.448;2022-08-21T11:18:04;26.80;99.90
12655;DHT22;6392;44.644;11.448;2022-08-21T11:20:41;26.60;99.90
12655;DHT22;6392;44.644;11.448;2022-08-21T11:23:14;26.60;99.90
12655;DHT22;6392;44.644;11.448;2022-08-21T11:25:47;26.50;99.90
12655;DHT22;6392;44.644;11.448;2022-08-21T11:28:20;26.40;99.90
12655;DHT22;6392;44.644;11.448;2022-08-21T11:30:57;26.50;99.90
12655;DHT22;6392;44.644;11.448;2022-08-21T11:33:35;26.40;99.90
12655;DHT22;6392;44.644;11.448;2022-08-21T11:36:16;26.20;99.90
12655;DHT22;6392;44.644;11.448;2022-08-21T11:38:50;26.10;99.90
12655;DHT22;6392;44.644;11.448;2022-08-21T11:41:27;26.10;99.90
12655;DHT22;6392;44.644;11.448;2022-08-21T11:44:02;26.20;99.90
12655;DHT22;6392;44.644;11.448;2022-08-21T11:46:38;26.20;99.90
12655;DHT22;6392;44.644;11.448;2022-08-21T11:49:21;26.10;99.90
12655;DHT22;6392;44.644;11.448;2022-08-21T11:51:58;26.10;99.90
12655;DHT22;6392;44.644;11.448;2022-08-21T11:54:36;26.10;99.90
12655;DHT22;6392;44.644;11.448;2022-08-21T11:57:07;26.10;99.90
12655;DHT22;6392;44.644;11.448;2022-08-21T11:59:43;26.10;99.90
12655;DHT22;6392;44.644;11.448;2022-08-21T12:02:14;26.10;99.90
12655;DHT22;6392;44.644;11.448;2022-08-21T12:04:45;26.10;99.90
12655;DHT22;6392;44.644;11.448;2022-08-21T12:07:17;26.20;99.90
12655;DHT22;6392;44.644;11.448;2022-08-21T12:09:55;26.20;99.90
12655;DHT22;6392;44.644;11.448;2022-08-21T12:12:28;26.20;99.90
12655;DHT22;6392;44.644;11.448;2022-08-21T12:15:23;26.10;99.90
12655;DHT22;6392;44.644;11.448;2022-08-21T12:17:55;26.10;99.90
12655;DHT22;6392;44.644;11.448;2022-08-21T12:20:41;26.10;99.90
12655;DHT22;6392;44.644;11.448;2022-08-21T12:23:23;26.10;99.90
12655;DHT22;6392;44.644;11.448;2022-08-21T12:26:03;26.20;99.90
12655;DHT22;6392;44.644;11.448;2022-08-21T12:28:31;26.20;99.90
12655;DHT22;6392;44.644;11.448;2022-08-21T12:30:58;26.20;99.90
12655;DHT22;6392;44.644;11.448;2022-08-21T12:33:29;26.20;99.90
12655;DHT22;6392;44.644;11.448;2022-08-21T12:36:04;26.20;99.90
12655;DHT22;6392;44.644;11.448;2022-08-21T12:38:39;26.20;99.90
12655;DHT22;6392;44.644;11.448;2022-08-21T12:41:16;26.20;99.90
12655;DHT22;6392;44.644;11.448;2022-08-21T12:43:46;26.20;99.90
12655;DHT22;6392;44.644;11.448;2022-08-21T12:46:17;26.20;99.90
12655;DHT22;6392;44.644;11.448;2022-08-21T12:48:48;26.20;99.90
12655;DHT22;6392;44.644;11.448;2022-08-21T12:51:18;26.30;99.90
12655;DHT22;6392;44.644;11.448;2022-08-21T12:53:50;26.70;99.90
12655;DHT22;6392;44.644;11.448;2022-08-21T12:56:22;26.80;99.90
12655;DHT22;6392;44.644;11.448;2022-08-21T12:58:52;26.70;99.90
12655;DHT22;6392;44.644;11.448;2022-08-21T13:01:23;26.60;99.90
12655;DHT22;6392;44.644;11.448;2022-08-21T13:03:52;26.50;99.90
12655;DHT22;6392;44.644;11.448;2022-08-21T13:06:20;26.50;99.90
12655;DHT22;6392;44.644;11.448;2022-08-21T13:08:50;26.50;99.90
12655;DHT22;6392;44.644;11.448;2022-08-21T13:11:23;26.40;99.90
12655;DHT22;6392;44.644;11.448;2022-08-21T13:13:52;26.40;99.90
12655;DHT22;6392;44.644;11.448;2022-08-21T13:16:22;26.40;99.90
12655;DHT22;6392;44.644;11.448;2022-08-21T13:18:57;26.40;99.90
12655;DHT22;6392;44.644;11.448;2022-08-21T13:21:30;26.40;99.90
12655;DHT22;6392;44.644;11.448;2022-08-21T13:24:12;26.40;99.90
12655;DHT22;6392;44.644;11.448;2022-08-21T13:26:41;26.40;99.90
12655;DHT22;6392;44.644;11.448;2022-08-21T13:29:11;26.40;99.90
12655;DHT22;6392;44.644;11.448;2022-08-21T13:31:40;26.40;99.90
12655;DHT22;6392;44.644;11.448;2022-08-21T13:34:10;26.50;99.90
12655;DHT22;6392;44.644;11.448;2022-08-21T13:36:39;26.50;99.90
12655;DHT22;6392;44.644;11.448;2022-08-21T13:39:09;26.50;99.90
12655;DHT22;6392;44.644;11.448;2022-08-21T13:41:39;26.40;99.90
12655;DHT22;6392;44.644;11.448;2022-08-21T13:44:16;26.50;99.90
12655;DHT22;6392;44.644;11.448;2022-08-21T13:46:44;26.50;99.90
12655;DHT22;6392;44.644;11.448;2022-08-21T13:49:14;26.50;99.90
12655;DHT22;6392;44.644;11.448;2022-08-21T13:51:43;26.50;99.90
12655;DHT22;6392;44.644;11.448;2022-08-21T13:54:16;26.50;99.90
12655;DHT22;6392;44.644;11.448;2022-08-21T13:56:47;26.50;99.90
12655;DHT22;6392;44.644;11.448;2022-08-21T13:59:26;26.50;99.90
12655;DHT22;6392;44.644;11.448;2022-08-21T14:01:54;26.50;99.90
12655;DHT22;6392;44.644;11.448;2022-08-21T14:04:29;26.60;99.90
12655;DHT22;6392;44.644;11.448;2022-08-21T14:06:57;26.60;99.90
12655;DHT22;6392;44.644;11.448;2022-08-21T14:09:29;26.60;99.90
12655;DHT22;6392;44.644;11.448;2022-08-21T14:11:58;26.60;99.90
12655;DHT22;6392;44.644;11.448;2022-08-21T14:14:29;26.60;99.90
12655;DHT22;6392;44.644;11.448;2022-08-21T14:16:59;26.60;99.90
12655;DHT22;6392;44.644;11.448;2022-08-21T14:19:35;26.70;99.90
12655;DHT22;6392;44.644;11.448;2022-08-21T14:22:21;26.70;99.90
12655;DHT22;6392;44.644;11.448;2022-08-21T14:24:49;26.70;99.90
12655;DHT22;6392;44.644;11.448;2022-08-21T14:27:17;26.70;99.90
12655;DHT22;6392;44.644;11.448;2022-08-21T14:29:46;26.70;99.90
12655;DHT22;6392;44.644;11.448;2022-08-21T14:32:15;26.70;99.90
12655;DHT22;6392;44.644;11.448;2022-08-21T14:34:42;26.80;99.90
12655;DHT22;6392;44.644;11.448;2022-08-21T14:37:09;26.80;99.90
12655;DHT22;6392;44.644;11.448;2022-08-21T14:39:36;26.80;99.90
12655;DHT22;6392;44.644;11.448;2022-08-21T14:42:03;27.00;99.90
12655;DHT22;6392;44.644;11.448;2022-08-21T14:44:31;27.00;99.90
12655;DHT22;6392;44.644;11.448;2022-08-21T14:47:00;26.90;99.90
12655;DHT22;6392;44.644;11.448;2022-08-21T14:49:28;26.90;99.90
12655;DHT22;6392;44.644;11.448;2022-08-21T14:51:55;26.90;99.90
12655;DHT22;6392;44.644;11.448;2022-08-21T14:54:23;26.90;99.90
12655;DHT22;6392;44.644;11.448;2022-08-21T14:56:50;26.90;99.90
12655;DHT22;6392;44.644;11.448;2022-08-21T14:59:18;27.00;99.90
12655;DHT22;6392;44.644;11.448;2022-08-21T15:01:46;27.00;99.90
12655;DHT22;6392;44.644;11.448;2022-08-21T15:04:15;26.90;99.90
12655;DHT22;6392;44.644;11.448;2022-08-21T15:06:43;27.10;99.90
12655;DHT22;6392;44.644;11.448;2022-08-21T15:09:10;27.30;99.90
12655;DHT22;6392;44.644;11.448;2022-08-21T15:11:37;27.20;99.90
12655;DHT22;6392;44.644;11.448;2022-08-21T15:14:07;27.20;99.90
12655;DHT22;6392;44.644;11.448;2022-08-21T15:16:35;27.20;99.90
12655;DHT22;6392;44.644;11.448;2022-08-21T15:19:02;27.20;99.90
12655;DHT22;6392;44.644;11.448;2022-08-21T15:21:30;27.20;99.90
12655;DHT22;6392;44.644;11.448;2022-08-21T15:23:57;27.20;99.90
12655;DHT22;6392;44.644;11.448;2022-08-21T15:26:25;27.20;99.90
12655;DHT22;6392;44.644;11.448;2022-08-21T15:28:52;27.10;99.90
12655;DHT22;6392;44.644;11.448;2022-08-21T15:31:19;27.00;99.90
12655;DHT22;6392;44.644;11.448;2022-08-21T15:33:46;27.10;99.90
12655;DHT22;6392;44.644;11.448;2022-08-21T15:36:13;27.10;99.90
12655;DHT22;6392;44.644;11.448;2022-08-21T15:38:41;27.10;99.90
12655;DHT22;6392;44.644;11.448;2022-08-21T15:41:09;27.00;99.90
12655;DHT22;6392;44.644;11.448;2022-08-21T15:43:41;27.10;99.90
12655;DHT22;6392;44.644;11.448;2022-08-21T15:46:11;27.20;99.90
12655;DHT22;6392;44.644;11.448;2022-08-21T15:48:38;27.10;99.90